Home   Weather   Germany   Berlin   Past weeks
Flag for Germany

Past Weather in Berlin, Germany — Yesterday and Last 2 Weeks

Currently: 64 °F. Clear. (Weather station: Berlin-Schoenefeld, Germany). See more current weather

Past Weather in Berlin — Graph

°F

Berlin Temperature Yesterday

Maximum temperature yesterday: 84 °F (at 3:20 pm)
Minimum temperature yesterday: 57 °F (at 4:20 am)
Average temperature yesterday: 71 °F

High & Low Weather Summary for the Past Weeks

 TemperatureHumidityPressure
High84 °F (May 10, 3:20 pm)100% (May 7, 12:20 pm)30.24 "Hg (May 7, 12:20 pm)
Low28 °F (Apr 26, 5:50 am)26% (Apr 27, 3:50 pm)29.45 "Hg (May 4, 5:50 pm)
Average50 °F65%29.82 "Hg
* Reported Apr 26 1:20 am — May 11 1:20 am, Berlin. Weather by CustomWeather, © 2021

Note: Actual official high and low records may vary slightly from our data, if they occured in-between our weather recording intervals... More about our weather records

Berlin Weather History for the Previous 24 Hours

Scroll right to see more
 ConditionsComfort  
Time TempWeatherWind HumidityBarometerVisibility
1:20 am
Tue, May 11
64 °FClear.8 mph68%29.77 "Hg10 mi
12:50 am66 °FPassing clouds.9 mph60%29.77 "HgN/A
12:20 am61 °FClear.2 mph72%29.80 "Hg10 mi
11:50 pm
Mon, May 10
64 °FClear.1 mph64%29.77 "Hg10 mi
11:20 pm66 °FClear.1 mph60%29.77 "Hg10 mi
10:50 pm68 °FClear.3 mph56%29.77 "Hg10 mi
10:20 pm70 °FClear.5 mph53%29.77 "Hg10 mi
9:50 pm70 °FClear.5 mph53%29.77 "Hg10 mi
9:20 pm73 °FClear.6 mph47%29.77 "Hg10 mi
8:50 pm77 °FClear.9 mph42%29.77 "Hg10 mi
8:20 pm77 °FSunny.12 mph42%29.77 "Hg10 mi
7:50 pm79 °FSunny.5 mph45%29.74 "Hg10 mi
7:20 pm79 °FSunny.7 mph45%29.74 "Hg10 mi
6:50 pm81 °FSunny.7 mph42%29.74 "Hg10 mi
6:20 pm82 °FPleasantly warm.9 mph35%29.74 "HgN/A
5:50 pm84 °FPassing clouds.8 mph31%29.74 "HgN/A
5:20 pm84 °FPassing clouds.9 mph37%29.71 "HgN/A
4:50 pm84 °FPassing clouds.10 mph35%29.71 "HgN/A
4:20 pm84 °FPassing clouds.14 mph33%29.71 "HgN/A
3:50 pm84 °FSunny.10 mph33%29.71 "Hg10 mi
3:20 pm84 °FSunny.12 mph31%29.71 "Hg10 mi
2:20 pm82 °FSunny.13 mph32%29.71 "Hg10 mi
1:50 pm81 °FPassing clouds.13 mph37%29.71 "HgN/A
1:20 pm79 °FSunny.10 mph39%29.71 "Hg10 mi
12:50 pm77 °FPassing clouds.12 mph42%29.71 "HgN/A
12:20 pm77 °FPassing clouds.9 mph39%29.71 "HgN/A
11:50 am75 °FPassing clouds.10 mph44%29.71 "HgN/A
11:20 am73 °FSunny.9 mph41%29.71 "Hg10 mi
10:50 am72 °FPassing clouds.8 mph44%29.74 "HgN/A
10:20 am70 °FPassing clouds.9 mph46%29.74 "HgN/A
9:50 am68 °FPassing clouds.9 mph46%29.74 "HgN/A
9:20 am66 °FSunny.12 mph49%29.74 "Hg10 mi
8:50 am66 °FPassing clouds.10 mph49%29.74 "HgN/A
8:20 am64 °FSunny.13 mph49%29.74 "Hg10 mi
7:50 am63 °FSunny.10 mph52%29.71 "Hg10 mi
7:20 am61 °FSunny.10 mph55%29.71 "Hg10 mi
6:50 am59 °FSunny.7 mph59%29.74 "Hg10 mi
5:50 am57 °FSunny.6 mph59%29.74 "Hg10 mi
5:20 am57 °FSunny.7 mph59%29.71 "Hg10 mi
4:50 am57 °FCool.8 mph63%29.71 "HgN/A
4:20 am57 °FClear.6 mph63%29.71 "Hg10 mi
3:50 am59 °FClear.7 mph59%29.74 "Hg10 mi
3:20 am59 °FClear.7 mph59%29.71 "Hg10 mi
2:50 am61 °FClear.8 mph59%29.74 "Hg10 mi
2:20 am61 °FClear.9 mph59%29.74 "Hg10 mi
Weather by CustomWeather, © 2021

See weather overview